Colombian Star — A8SL3 — position and weather

sailwx.info

Track history (hours):
 
Tides and Currents Weather Stations Pressure Air Temp Water Temp Dewpoint Dewpoint Depression Visibility Wind Speed Wind Dir Waves Ship Positions

Colombian Star

Last reported at 2018-Feb-17 23:00 UTC. Time now 2018-Feb-17 23:09 UTC.
Position N 50°49' W 001°05'.

Length 185 m; draft 8.3 m.

Type: Cargo ship. MMSI: 636014240.

Date/timePositionNaut miles runAvg speedWind from/ knotsBaromVisibWave heightAir tempDewpointWater temp
2018-Feb-17 23:00N 50°49' W 001°05'0 0.0
2018-Feb-17 22:30N 50°49' W 001°05'0 0.0
2018-Feb-17 22:00N 50°49' W 001°05'0 0.0
2018-Feb-17 21:30N 50°49' W 001°05'0 0.0
2018-Feb-17 21:00N 50°49' W 001°05'0 0.0
2018-Feb-17 20:30N 50°49' W 001°05'0 0.0
2018-Feb-17 20:00N 50°49' W 001°05'0 0.0
2018-Feb-17 19:30N 50°49' W 001°06'1 2.3
2018-Feb-17 19:00N 50°48' W 001°07'5 9.9
2018-Feb-17 18:30N 50°44' W 001°02'4 8.0
2018-Feb-17 18:00N 50°40' W 000°59'4 7.1
2018-Feb-17 17:30N 50°37' W 000°59'4 9.0
2018-Feb-17 17:00N 50°33' W 001°02'612.3
2018-Feb-17 16:30N 50°29' W 001°10'713.9
2018-Feb-17 16:01N 50°28' W 001°20'913.9
2018-Feb-17 15:22N 50°26' W 001°34'514.3
2018-Feb-17 14:59N 50°24' W 001°43'714.0
2018-Feb-17 14:29N 50°23' W 001°53'814.1
2018-Feb-17 13:57N 50°22' W 002°05'614.2
2018-Feb-17 13:31N 50°21' W 002°15'815.2
2018-Feb-17 13:01N 50°18' W 002°26'815.9
2018-Feb-17 12:31N 50°16' W 002°38'816.5
2018-Feb-17 12:01N 50°14' W 002°50'816.7
2018-Feb-17 11:31N 50°11' W 003°03'816.9
2018-Feb-17 11:01N 50°08' W 003°14'817.0
2018-Feb-17 10:31N 50°04' W 003°26'917.1
2018-Feb-17 10:01N 49°60' W 003°38'917.2
2018-Feb-17 09:30N 49°56' W 003°50'1217.1
2018-Feb-17 08:50N 49°49' W 004°05'  
2018-Feb-13 14:47N 28°50' W 015°37'518.9
2018-Feb-13 14:31N 28°45' W 015°38'918.7
2018-Feb-13 14:01N 28°36' W 015°41'918.4
2018-Feb-13 13:31N 28°28' W 015°46'918.6
2018-Feb-13 13:01N 28°21' W 015°52'1018.8
2018-Feb-13 12:29N 28°14' W 016°00'3218.4
2018-Feb-13 10:46N 27°46' W 016°18'  
2018-Feb-10 17:25N 10°48' W 017°17'1217.9
2018-Feb-10 16:45N 10°38' W 017°11'2818.0
2018-Feb-10 15:11N 10°17' W 016°52'418.7
2018-Feb-10 15:00N 10°14' W 016°49'918.6
2018-Feb-10 14:29N 10°08' W 016°42'3918.7
2018-Feb-10 12:25N 09°42' W 016°13'818.6
2018-Feb-10 12:00N 09°36' W 016°07'4918.8
2018-Feb-10 09:24N 09°03' W 015°31'1019.2
2018-Feb-10 08:54N 08°56' W 015°24'719.1
2018-Feb-10 08:30N 08°51' W 015°18'1019.3
2018-Feb-10 07:59N 08°45' W 015°11'919.2
2018-Feb-10 07:30N 08°38' W 015°04'1119.2
2018-Feb-10 06:56N 08°31' W 014°56'819.3
2018-Feb-10 06:30N 08°25' W 014°50'1719.6
2018-Feb-10 05:38N 08°13' W 014°37'219.4
2018-Feb-10 05:31N 08°12' W 014°35'1019.5
2018-Feb-10 05:00N 08°05' W 014°28'1019.5
2018-Feb-10 04:30N 07°58' W 014°21'1019.4
2018-Feb-10 04:00N 07°52' W 014°14'5618.9
2018-Feb-10 01:02N 07°16' W 013°30'318.6
2018-Feb-10 00:51N 07°14' W 013°28'718.6
2018-Feb-10 00:29N 07°10' W 013°21'1718.7
2018-Feb-09 23:35N 07°02' W 013°07'119.2
2018-Feb-09 23:30N 07°01' W 013°06'  
Track history (hours):
 
Tides and Currents Weather Stations Pressure Air Temp Water Temp Dewpoint Dewpoint Depression Visibility Wind Speed Wind Dir Waves Ship Positions

Colombian Star

Last reported at 2018-Feb-17 23:00 UTC. Time now 2018-Feb-17 23:09 UTC.
Position N 50°49' W 001°05'.

Length 185 m; draft 8.3 m.

Type: Cargo ship. MMSI: 636014240.

Date/timePositionNaut miles runAvg speedWind from/ knotsBaromVisibWave heightAir tempDewpointWater temp
2018-Feb-17 23:00N 50°49' W 001°05'0 0.0
2018-Feb-17 22:30N 50°49' W 001°05'0 0.0
2018-Feb-17 22:00N 50°49' W 001°05'0 0.0
2018-Feb-17 21:30N 50°49' W 001°05'0 0.0
2018-Feb-17 21:00N 50°49' W 001°05'0 0.0
2018-Feb-17 20:30N 50°49' W 001°05'0 0.0
2018-Feb-17 20:00N 50°49' W 001°05'0 0.0
2018-Feb-17 19:30N 50°49' W 001°06'1 2.3
2018-Feb-17 19:00N 50°48' W 001°07'5 9.9
2018-Feb-17 18:30N 50°44' W 001°02'4 8.0
2018-Feb-17 18:00N 50°40' W 000°59'4 7.1
2018-Feb-17 17:30N 50°37' W 000°59'4 9.0
2018-Feb-17 17:00N 50°33' W 001°02'612.3
2018-Feb-17 16:30N 50°29' W 001°10'713.9
2018-Feb-17 16:01N 50°28' W 001°20'913.9
2018-Feb-17 15:22N 50°26' W 001°34'514.3
2018-Feb-17 14:59N 50°24' W 001°43'714.0
2018-Feb-17 14:29N 50°23' W 001°53'814.1
2018-Feb-17 13:57N 50°22' W 002°05'614.2
2018-Feb-17 13:31N 50°21' W 002°15'815.2
2018-Feb-17 13:01N 50°18' W 002°26'815.9
2018-Feb-17 12:31N 50°16' W 002°38'816.5
2018-Feb-17 12:01N 50°14' W 002°50'816.7
2018-Feb-17 11:31N 50°11' W 003°03'816.9
2018-Feb-17 11:01N 50°08' W 003°14'817.0
2018-Feb-17 10:31N 50°04' W 003°26'917.1
2018-Feb-17 10:01N 49°60' W 003°38'917.2
2018-Feb-17 09:30N 49°56' W 003°50'1217.1
2018-Feb-17 08:50N 49°49' W 004°05'  
2018-Feb-13 14:47N 28°50' W 015°37'518.9
2018-Feb-13 14:31N 28°45' W 015°38'918.7
2018-Feb-13 14:01N 28°36' W 015°41'918.4
2018-Feb-13 13:31N 28°28' W 015°46'918.6
2018-Feb-13 13:01N 28°21' W 015°52'1018.8
2018-Feb-13 12:29N 28°14' W 016°00'3218.4
2018-Feb-13 10:46N 27°46' W 016°18'  
2018-Feb-10 17:25N 10°48' W 017°17'1217.9
2018-Feb-10 16:45N 10°38' W 017°11'2818.0
2018-Feb-10 15:11N 10°17' W 016°52'418.7
2018-Feb-10 15:00N 10°14' W 016°49'918.6
2018-Feb-10 14:29N 10°08' W 016°42'3918.7
2018-Feb-10 12:25N 09°42' W 016°13'818.6
2018-Feb-10 12:00N 09°36' W 016°07'4918.8
2018-Feb-10 09:24N 09°03' W 015°31'1019.2
2018-Feb-10 08:54N 08°56' W 015°24'719.1
2018-Feb-10 08:30N 08°51' W 015°18'1019.3
2018-Feb-10 07:59N 08°45' W 015°11'919.2
2018-Feb-10 07:30N 08°38' W 015°04'1119.2
2018-Feb-10 06:56N 08°31' W 014°56'819.3
2018-Feb-10 06:30N 08°25' W 014°50'1719.6
2018-Feb-10 05:38N 08°13' W 014°37'219.4
2018-Feb-10 05:31N 08°12' W 014°35'1019.5
2018-Feb-10 05:00N 08°05' W 014°28'1019.5
2018-Feb-10 04:30N 07°58' W 014°21'1019.4
2018-Feb-10 04:00N 07°52' W 014°14'5618.9
2018-Feb-10 01:02N 07°16' W 013°30'318.6
2018-Feb-10 00:51N 07°14' W 013°28'718.6
2018-Feb-10 00:29N 07°10' W 013°21'1718.7
2018-Feb-09 23:35N 07°02' W 013°07'119.2
2018-Feb-09 23:30N 07°01' W 013°06'  

Dump ship's entire track history